createdAt,value
2023-05-02T00:00:35.256Z,23.5
2023-05-02T00:01:34.704Z,28.1
2023-05-02T00:02:35.290Z,27.5
2023-05-02T00:03:34.877Z,28.2
2023-05-02T00:07:35.104Z,31.0
2023-05-02T00:08:35.463Z,31.4
2023-05-02T00:09:35.175Z,29.3
2023-05-02T00:10:34.738Z,29.1
2023-05-02T00:11:35.918Z,31.2
2023-05-02T00:14:35.880Z,31.0
2023-05-02T00:15:34.903Z,31.5
2023-05-02T00:16:35.026Z,23.2
2023-05-02T00:17:35.195Z,26.4
2023-05-02T00:19:34.692Z,30.4
2023-05-02T00:22:34.839Z,27.7
2023-05-02T00:23:34.682Z,24.4
2023-05-02T00:24:34.873Z,28.1
2023-05-02T00:25:34.559Z,22.3
2023-05-02T00:26:35.226Z,28.9
2023-05-02T00:27:35.645Z,28.5
2023-05-02T00:34:35.183Z,25.3
2023-05-02T00:35:34.548Z,24.6
2023-05-02T00:36:34.721Z,27.6
2023-05-02T00:37:34.817Z,26.6
2023-05-02T00:38:34.399Z,25.7
2023-05-02T00:39:36.328Z,27.8
2023-05-02T00:40:35.660Z,29.5
2023-05-02T00:41:34.806Z,20.9
2023-05-02T00:42:35.391Z,26.5
2023-05-02T00:43:37.289Z,26.4
2023-05-02T00:47:34.849Z,24.2
2023-05-02T00:48:34.630Z,24.1
2023-05-02T00:50:34.740Z,21.9
2023-05-02T00:51:35.128Z,21.4
2023-05-02T00:52:34.343Z,25.7
2023-05-02T00:53:34.341Z,20.8
2023-05-02T00:54:53.388Z,30.0
2023-05-02T00:55:34.508Z,25.9
2023-05-02T00:56:42.331Z,20.1
2023-05-02T00:57:36.044Z,26.4
2023-05-02T00:58:36.018Z,25.1
2023-05-02T00:59:35.947Z,23.7
2023-05-02T01:00:36.898Z,25.7
2023-05-02T01:01:36.132Z,26.5
2023-05-02T01:02:37.427Z,23.1
2023-05-02T01:03:34.947Z,21.3
2023-05-02T01:04:34.486Z,25.0
2023-05-02T01:05:34.480Z,21.8
2023-05-02T01:06:35.001Z,24.6
2023-05-02T01:07:34.781Z,17.4
2023-05-02T01:08:34.458Z,24.5
2023-05-02T01:09:35.089Z,24.4
2023-05-02T01:10:34.549Z,22.6
2023-05-02T01:11:35.914Z,23.0
2023-05-02T01:13:34.886Z,17.9
2023-05-02T01:14:34.650Z,21.6
2023-05-02T01:15:35.228Z,28.0
2023-05-02T01:18:35.375Z,23.7
2023-05-02T01:19:34.834Z,24.6
2023-05-02T01:20:34.668Z,32.4
2023-05-02T01:21:34.316Z,26.4
2023-05-02T01:22:34.891Z,27.5
2023-05-02T01:23:35.127Z,25.2
2023-05-02T01:24:34.697Z,24.4
2023-05-02T01:25:34.903Z,22.6
2023-05-02T01:26:35.653Z,26.3
2023-05-02T01:27:34.585Z,26.3
2023-05-02T01:28:34.757Z,25.9
2023-05-02T01:29:36.055Z,27.7
2023-05-02T01:31:35.238Z,25.5
2023-05-02T01:39:35.158Z,24.9
2023-05-02T01:40:35.034Z,25.6
2023-05-02T01:41:36.052Z,24.3
2023-05-02T01:42:34.995Z,30.0
2023-05-02T01:43:42.088Z,27.0
2023-05-02T01:53:34.691Z,31.9
2023-05-02T01:54:34.491Z,29.3
2023-05-02T01:57:34.538Z,28.8
2023-05-02T01:58:35.407Z,31.1
2023-05-02T02:05:34.889Z,26.5
2023-05-02T02:06:34.703Z,30.9
2023-05-02T02:07:34.494Z,26.0
2023-05-02T02:08:34.654Z,29.8
2023-05-02T02:09:34.927Z,26.5
2023-05-02T02:10:34.674Z,31.5
2023-05-02T02:11:43.440Z,29.2
2023-05-02T02:12:34.727Z,34.5
2023-05-02T02:13:34.773Z,27.5
2023-05-02T02:16:34.653Z,32.4
2023-05-02T02:17:34.785Z,25.8
2023-05-02T02:18:34.825Z,31.0
2023-05-02T02:19:34.341Z,29.8
2023-05-02T02:22:35.094Z,34.4
2023-05-02T02:23:35.331Z,27.9
2023-05-02T02:24:34.870Z,33.0
2023-05-02T02:25:55.999Z,21.8
2023-05-02T02:26:34.462Z,27.5
2023-05-02T02:27:34.270Z,27.5
2023-05-02T02:28:34.490Z,26.9
2023-05-02T02:29:34.761Z,23.8
2023-05-02T02:30:34.471Z,27.7
2023-05-02T02:31:35.145Z,26.9
2023-05-02T02:32:37.769Z,28.7
2023-05-02T02:33:34.545Z,30.5
2023-05-02T02:34:34.562Z,31.1
2023-05-02T02:35:36.902Z,26.0
2023-05-02T02:36:42.445Z,27.3
2023-05-02T02:37:34.749Z,24.4
2023-05-02T02:38:34.738Z,22.4
2023-05-02T02:39:34.591Z,28.6
2023-05-02T02:40:34.766Z,24.0
2023-05-02T02:41:34.765Z,23.8
2023-05-02T02:42:35.031Z,23.8
2023-05-02T02:43:34.487Z,29.6
2023-05-02T02:44:36.124Z,26.8
2023-05-02T02:45:34.493Z,31.2
2023-05-02T02:48:35.677Z,23.6
2023-05-02T02:49:34.973Z,27.4
2023-05-02T02:52:36.202Z,27.1
2023-05-02T02:53:34.759Z,21.4
2023-05-02T02:54:34.855Z,22.0
2023-05-02T02:55:34.491Z,26.1
2023-05-02T02:56:34.758Z,18.0
2023-05-02T02:57:34.503Z,26.8
2023-05-02T02:58:34.712Z,23.6
2023-05-02T02:59:35.231Z,27.5
2023-05-02T03:00:34.534Z,22.7
2023-05-02T03:01:34.672Z,27.8
2023-05-02T03:02:34.468Z,24.8
2023-05-02T03:03:34.654Z,19.9
2023-05-02T03:04:34.544Z,22.4
2023-05-02T03:05:35.689Z,26.6
2023-05-02T03:06:34.863Z,22.8
2023-05-02T03:07:35.078Z,19.5
2023-05-02T03:08:34.469Z,25.3
2023-05-02T03:09:34.411Z,19.5
2023-05-02T03:10:34.594Z,21.7
2023-05-02T03:11:34.819Z,24.8
2023-05-02T03:12:34.405Z,22.8
2023-05-02T03:13:34.760Z,24.5
2023-05-02T03:14:34.761Z,20.5
2023-05-02T03:15:34.773Z,22.6
2023-05-02T03:16:34.891Z,18.5
2023-05-02T03:17:35.355Z,29.2
2023-05-02T03:20:36.878Z,23.5
2023-05-02T03:26:34.536Z,22.5
2023-05-02T03:27:35.935Z,22.8
2023-05-02T03:28:34.653Z,18.3
2023-05-02T03:29:34.352Z,17.8
2023-05-02T03:34:34.408Z,19.5
2023-05-02T03:35:34.431Z,17.5
2023-05-02T03:36:35.652Z,16.0
2023-05-02T03:37:35.310Z,18.5
2023-05-02T03:39:34.584Z,16.4
2023-05-02T03:40:35.063Z,16.7
2023-05-02T03:41:34.561Z,17.9
2023-05-02T03:42:34.453Z,17.2
2023-05-02T03:43:34.402Z,19.6
2023-05-02T03:44:34.721Z,18.8
2023-05-02T03:45:35.322Z,19.5
2023-05-02T03:46:34.448Z,17.4
2023-05-02T03:47:34.777Z,18.6
2023-05-02T03:48:34.738Z,16.3
2023-05-02T03:49:34.637Z,20.3
2023-05-02T03:50:37.807Z,19.1
2023-05-02T03:51:38.050Z,16.1
2023-05-02T03:52:36.273Z,18.6
2023-05-02T03:53:40.228Z,15.8
2023-05-02T03:55:36.761Z,19.6
2023-05-02T03:56:36.481Z,21.1
2023-05-02T03:57:36.403Z,17.7
2023-05-02T03:58:36.110Z,16.4
2023-05-02T03:59:36.288Z,20.2
2023-05-02T04:00:36.522Z,19.9
2023-05-02T04:01:36.584Z,16.1
2023-05-02T04:02:36.149Z,19.8
2023-05-02T04:03:36.892Z,17.1
2023-05-02T04:04:36.958Z,15.9
2023-05-02T04:05:36.516Z,17.1
2023-05-02T04:06:36.908Z,19.1
2023-05-02T04:07:36.346Z,17.5
2023-05-02T04:08:36.699Z,18.2
2023-05-02T04:09:53.915Z,15.1
2023-05-02T04:10:35.960Z,16.7
2023-05-02T04:11:38.123Z,17.0
2023-05-02T04:12:36.254Z,18.8
2023-05-02T04:23:36.318Z,18.6
2023-05-02T04:24:37.794Z,20.4
2023-05-02T04:25:36.963Z,19.9
2023-05-02T04:26:36.255Z,21.0
2023-05-02T04:27:36.247Z,18.6
2023-05-02T04:28:36.660Z,19.7
2023-05-02T04:29:37.610Z,20.2
2023-05-02T04:30:36.744Z,17.6
2023-05-02T04:31:36.595Z,17.2
2023-05-02T04:35:36.452Z,21.8
2023-05-02T04:37:36.470Z,17.4
2023-05-02T04:38:36.002Z,15.3
2023-05-02T04:39:36.643Z,15.3
2023-05-02T04:40:36.371Z,13.7
2023-05-02T04:41:36.199Z,16.1
2023-05-02T04:42:35.927Z,16.3
2023-05-02T04:43:37.161Z,15.3
2023-05-02T04:44:37.419Z,17.4
2023-05-02T04:45:37.309Z,17.0
2023-05-02T04:46:36.583Z,15.7
2023-05-02T04:50:36.629Z,15.7
2023-05-02T04:51:36.670Z,13.9
2023-05-02T04:52:36.374Z,14.8
2023-05-02T04:53:37.192Z,14.6
2023-05-02T04:54:37.207Z,14.5
2023-05-02T05:52:43.195Z,18.1
2023-05-02T05:53:43.216Z,8.9
2023-05-02T05:54:43.275Z,11.8
2023-05-02T05:55:43.160Z,14.8
2023-05-02T05:56:43.166Z,11.6
2023-05-02T05:57:43.213Z,19.5
2023-05-02T05:58:43.139Z,19.3
2023-05-02T05:59:43.143Z,16.5
2023-05-02T06:00:43.153Z,10.3
2023-05-02T06:02:02.414Z,11.8
2023-05-02T06:02:43.407Z,13.5
2023-05-02T06:03:43.260Z,8.8
2023-05-02T06:04:43.218Z,10.1
2023-05-02T06:05:43.117Z,9.9
2023-05-02T06:06:43.198Z,10.6
2023-05-02T06:07:43.143Z,8.7
2023-05-02T06:08:43.198Z,11.5
2023-05-02T06:09:43.149Z,12.1
2023-05-02T06:10:43.289Z,10.0
2023-05-02T06:11:43.137Z,11.4
2023-05-02T06:12:43.128Z,10.1
2023-05-02T06:14:43.172Z,11.2
2023-05-02T06:15:43.225Z,10.2
2023-05-02T06:16:43.128Z,11.3
2023-05-02T06:17:43.232Z,8.8
2023-05-02T06:19:43.144Z,12.6
2023-05-02T06:20:43.170Z,9.3
2023-05-02T06:21:43.114Z,6.7
2023-05-02T06:22:43.114Z,7.7
2023-05-02T06:23:43.157Z,9.7
2023-05-02T06:24:43.273Z,8.9
2023-05-02T06:25:43.113Z,8.1
2023-05-02T06:26:43.103Z,8.3
2023-05-02T06:27:43.142Z,9.1
2023-05-02T06:28:43.256Z,7.2
2023-05-02T06:29:43.141Z,7.0
2023-05-02T06:30:43.113Z,10.4
2023-05-02T06:31:43.149Z,7.7
2023-05-02T06:32:43.166Z,7.8
2023-05-02T06:33:43.105Z,8.4
2023-05-02T06:34:43.102Z,9.3
2023-05-02T06:35:43.209Z,10.4
2023-05-02T06:36:43.111Z,9.7
2023-05-02T06:37:43.136Z,8.4
2023-05-02T06:38:43.074Z,8.3
2023-05-02T06:39:43.092Z,9.1
2023-05-02T06:40:43.083Z,7.1
2023-05-02T06:41:43.121Z,9.6
2023-05-02T06:42:43.159Z,10.7
2023-05-02T06:43:43.175Z,11.3
2023-05-02T06:44:43.077Z,8.0
2023-05-02T06:45:43.110Z,7.3
2023-05-02T06:46:43.309Z,9.8
2023-05-02T06:47:43.104Z,8.3
2023-05-02T06:48:43.110Z,8.2
2023-05-02T06:49:43.064Z,8.8
2023-05-02T06:50:43.075Z,11.0
2023-05-02T06:51:43.046Z,7.9
2023-05-02T06:52:43.050Z,9.9
2023-05-02T06:53:43.106Z,8.7
2023-05-02T06:54:43.070Z,13.0
2023-05-02T06:55:43.113Z,8.5
2023-05-02T06:56:43.075Z,8.1
2023-05-02T06:57:43.245Z,7.2
2023-05-02T06:58:43.067Z,9.6
2023-05-02T06:59:43.353Z,14.2
2023-05-02T07:00:43.758Z,9.9
2023-05-02T07:01:43.099Z,10.2
2023-05-02T07:02:43.163Z,10.3
2023-05-02T07:03:43.494Z,13.7
2023-05-02T07:04:43.619Z,7.9
2023-05-02T07:05:43.289Z,10.2
2023-05-02T07:21:15.368Z,16.1
2023-05-02T07:21:43.059Z,7.7
2023-05-02T07:22:43.248Z,7.6
2023-05-02T07:23:43.011Z,6.5
2023-05-02T07:24:43.023Z,6.9
2023-05-02T07:25:43.017Z,6.7
2023-05-02T07:26:43.018Z,7.4
2023-05-02T07:27:43.054Z,6.0
2023-05-02T07:28:42.991Z,7.3
2023-05-02T07:29:43.081Z,5.1
2023-05-02T07:30:43.017Z,9.9
2023-05-02T07:31:43.067Z,6.3
2023-05-02T07:32:45.284Z,8.7
2023-05-02T07:33:43.011Z,5.7
2023-05-02T07:34:43.046Z,6.6
2023-05-02T07:35:43.103Z,5.9
2023-05-02T07:36:43.078Z,6.1
2023-05-02T07:37:43.093Z,8.1
2023-05-02T07:38:42.994Z,9.6
2023-05-02T07:39:43.000Z,7.5
2023-05-02T07:40:43.013Z,6.2
2023-05-02T07:41:43.198Z,6.2
2023-05-02T07:42:43.611Z,4.6
2023-05-02T07:43:43.172Z,5.7
2023-05-02T07:44:43.097Z,10.3
2023-05-02T07:45:43.656Z,7.1
2023-05-02T07:46:43.307Z,6.1
2023-05-02T07:47:43.250Z,8.9
2023-05-02T07:48:43.066Z,8.0
2023-05-02T07:49:43.213Z,7.4
2023-05-02T07:50:43.122Z,8.0
2023-05-02T07:51:43.004Z,6.4
2023-05-02T07:52:43.171Z,6.1
2023-05-02T07:53:43.030Z,7.1
2023-05-02T07:54:43.028Z,7.5
2023-05-02T07:55:43.017Z,9.4
2023-05-02T07:56:43.101Z,5.8
2023-05-02T07:57:42.979Z,6.3
2023-05-02T07:58:43.613Z,5.9
2023-05-02T07:59:44.012Z,8.4
2023-05-02T08:00:43.903Z,8.0
2023-05-02T08:01:43.030Z,6.3
2023-05-02T08:02:43.905Z,5.9
2023-05-02T08:03:43.157Z,7.7
2023-05-02T08:04:43.294Z,6.8
2023-05-02T08:05:42.983Z,6.2
2023-05-02T08:06:43.025Z,5.5
2023-05-02T08:07:43.219Z,11.3
2023-05-02T08:08:45.505Z,7.2
2023-05-02T08:09:43.070Z,4.9
2023-05-02T08:10:43.019Z,5.1
2023-05-02T08:11:42.969Z,6.6
2023-05-02T08:12:43.049Z,6.9
2023-05-02T08:13:43.191Z,5.2
2023-05-02T08:14:52.051Z,9.4
2023-05-02T08:15:43.445Z,6.1
2023-05-02T08:19:44.338Z,7.1
2023-05-02T08:20:43.071Z,8.5
2023-05-02T08:21:42.982Z,5.1
2023-05-02T08:22:43.314Z,5.2
2023-05-02T08:23:47.505Z,5.3
2023-05-02T08:24:42.962Z,5.0
2023-05-02T08:25:47.108Z,5.3
2023-05-02T08:26:42.964Z,6.1
2023-05-02T08:27:42.971Z,5.8
2023-05-02T08:28:42.919Z,5.2
2023-05-02T08:29:42.926Z,4.7
2023-05-02T08:30:42.955Z,6.8
2023-05-02T08:31:43.383Z,7.3
2023-05-02T08:32:51.932Z,5.9
2023-05-02T08:33:42.984Z,6.3
2023-05-02T08:34:42.935Z,5.6
2023-05-02T08:35:42.988Z,7.9
2023-05-02T08:36:43.052Z,5.7
2023-05-02T08:37:43.192Z,6.0
2023-05-02T08:38:43.625Z,4.0
2023-05-02T08:39:43.040Z,5.2
2023-05-02T08:40:43.447Z,4.3
2023-05-02T08:41:42.932Z,3.6
2023-05-02T08:42:42.990Z,7.9
2023-05-02T08:43:43.445Z,4.5
2023-05-02T08:44:42.942Z,6.7
2023-05-02T08:45:43.143Z,4.1
2023-05-02T08:46:42.949Z,6.0
2023-05-02T08:47:43.028Z,6.7
2023-05-02T08:48:42.943Z,4.2
2023-05-02T08:49:42.985Z,3.3
2023-05-02T08:50:42.989Z,4.9
2023-05-02T08:51:42.919Z,5.3
2023-05-02T08:52:42.903Z,3.1
2023-05-02T08:55:56.025Z,4.1
2023-05-02T08:56:55.996Z,4.6
2023-05-02T08:57:56.057Z,5.7
2023-05-02T08:58:56.030Z,4.5
2023-05-02T08:59:55.988Z,3.7
2023-05-02T09:00:56.278Z,5.2
2023-05-02T09:01:56.055Z,4.0
2023-05-02T09:02:56.009Z,5.6
2023-05-02T09:03:56.068Z,5.3
2023-05-02T09:04:56.099Z,4.8
2023-05-02T09:05:56.272Z,4.9
2023-05-02T09:06:56.026Z,6.4
2023-05-02T09:07:56.005Z,5.3
2023-05-02T09:08:56.166Z,3.7
2023-05-02T09:09:56.003Z,4.3
2023-05-02T09:10:56.023Z,4.0
2023-05-02T09:11:56.032Z,4.4
2023-05-02T09:12:57.065Z,4.4
2023-05-02T09:13:55.998Z,4.7
2023-05-02T09:14:55.998Z,5.2
2023-05-02T09:15:56.015Z,5.0
2023-05-02T09:16:56.046Z,6.8
2023-05-02T09:17:56.019Z,4.4
2023-05-02T09:18:55.960Z,4.7
2023-05-02T09:19:56.078Z,5.8
2023-05-02T09:20:55.979Z,4.2
2023-05-02T09:21:55.996Z,4.7
2023-05-02T09:22:55.999Z,3.7
2023-05-02T09:23:55.964Z,8.7
2023-05-02T09:24:56.005Z,6.7
2023-05-02T09:25:56.016Z,4.8
2023-05-02T09:26:55.948Z,7.3
2023-05-02T09:27:55.955Z,5.0
2023-05-02T09:28:55.975Z,5.1
2023-05-02T09:29:55.996Z,5.4
2023-05-02T09:30:56.217Z,4.0
2023-05-02T09:31:56.750Z,4.8
2023-05-02T09:32:56.325Z,3.6
2023-05-02T09:33:55.984Z,5.4
2023-05-02T09:34:56.027Z,6.1
2023-05-02T09:35:56.033Z,3.3
2023-05-02T09:36:55.969Z,5.7
2023-05-02T09:37:55.923Z,6.2
2023-05-02T09:38:55.943Z,3.1
2023-05-02T09:39:55.980Z,4.7
2023-05-02T09:40:56.176Z,5.1
2023-05-02T09:41:56.064Z,5.1
2023-05-02T09:42:55.941Z,6.6
2023-05-02T09:43:55.943Z,4.3
2023-05-02T09:44:55.988Z,3.4
2023-05-02T09:45:55.960Z,4.5
2023-05-02T09:46:55.992Z,4.0
2023-05-02T09:47:55.998Z,3.8
2023-05-02T09:48:56.086Z,6.9
2023-05-02T09:49:55.970Z,4.1
2023-05-02T09:50:55.948Z,3.8
2023-05-02T09:51:55.917Z,3.9
2023-05-02T09:52:56.095Z,7.2
2023-05-02T09:53:55.942Z,4.7
2023-05-02T09:54:55.946Z,7.2
2023-05-02T09:55:55.960Z,4.6
2023-05-02T09:56:55.926Z,6.5
2023-05-02T09:57:55.924Z,7.3
2023-05-02T09:58:55.934Z,6.3
2023-05-02T09:59:56.327Z,6.9
2023-05-02T10:01:56.196Z,4.5
2023-05-02T10:02:55.938Z,4.4
2023-05-02T10:03:56.041Z,7.0
2023-05-02T10:04:55.939Z,4.9
2023-05-02T10:05:55.974Z,5.4
2023-05-02T10:07:55.947Z,6.7
2023-05-02T10:08:55.972Z,5.5
2023-05-02T10:10:18.698Z,8.6
2023-05-02T10:10:55.945Z,7.8
2023-05-02T10:11:55.930Z,6.1
2023-05-02T10:12:55.994Z,6.5
2023-05-02T10:13:55.905Z,7.8
2023-05-02T10:14:59.827Z,10.1
2023-05-02T10:15:55.965Z,11.3
2023-05-02T10:16:55.898Z,13.1
2023-05-02T10:17:55.961Z,9.9
2023-05-02T10:18:55.943Z,6.6
2023-05-02T10:19:55.917Z,10.3
2023-05-02T10:20:55.935Z,10.4
2023-05-02T10:21:55.874Z,7.1
2023-05-02T10:22:55.916Z,11.8
2023-05-02T10:23:55.980Z,13.4
2023-05-02T10:24:55.894Z,11.8
2023-05-02T10:26:02.001Z,12.0
2023-05-02T10:26:55.886Z,7.9
2023-05-02T10:27:55.918Z,7.4
2023-05-02T10:28:55.868Z,8.2
2023-05-02T10:29:55.950Z,10.5
2023-05-02T10:30:55.873Z,8.2
2023-05-02T10:31:56.042Z,9.1
2023-05-02T10:32:56.021Z,13.7
2023-05-02T10:33:55.887Z,10.6
2023-05-02T10:34:55.920Z,8.8
2023-05-02T10:35:55.912Z,12.3
2023-05-02T10:36:56.116Z,9.4
2023-05-02T10:37:56.115Z,8.8
2023-05-02T10:38:55.948Z,6.4
2023-05-02T10:39:55.970Z,11.7
2023-05-02T10:40:55.909Z,9.7
2023-05-02T10:41:55.879Z,9.0
2023-05-02T10:42:55.881Z,10.5
2023-05-02T10:43:55.890Z,6.5
2023-05-02T10:44:55.881Z,8.3
2023-05-02T10:45:55.881Z,7.7
2023-05-02T10:46:55.980Z,6.5
2023-05-02T10:47:55.943Z,8.8
2023-05-02T10:48:55.894Z,5.2
2023-05-02T10:49:55.860Z,5.3
2023-05-02T10:50:55.931Z,6.3
2023-05-02T10:51:55.880Z,7.7
2023-05-02T10:52:55.896Z,5.9
2023-05-02T10:53:55.869Z,8.9
2023-05-02T10:54:55.847Z,8.7
2023-05-02T10:55:55.821Z,8.3
2023-05-02T10:56:55.835Z,9.9
2023-05-02T10:57:55.855Z,7.7
2023-05-02T10:58:55.985Z,7.0
2023-05-02T10:59:55.851Z,10.2
2023-05-02T11:00:55.923Z,8.8
2023-05-02T11:01:55.884Z,6.9
2023-05-02T11:02:55.968Z,6.8
2023-05-02T11:03:55.916Z,6.9
2023-05-02T11:04:55.848Z,7.8
2023-05-02T11:05:55.889Z,9.7
2023-05-02T11:06:55.854Z,8.9
2023-05-02T11:07:55.867Z,6.5
2023-05-02T11:08:55.942Z,6.2
2023-05-02T11:09:55.941Z,7.5
2023-05-02T11:10:55.872Z,8.7
2023-05-02T11:11:55.905Z,6.4
2023-05-02T11:12:55.843Z,8.5
2023-05-02T11:13:55.845Z,6.8
2023-05-02T11:14:55.908Z,5.8
2023-05-02T11:15:55.801Z,7.8
2023-05-02T11:16:55.900Z,7.2
2023-05-02T11:17:56.104Z,13.6
2023-05-02T11:18:55.835Z,7.4
2023-05-02T11:19:55.897Z,5.3
2023-05-02T11:20:55.973Z,5.9
2023-05-02T11:21:55.841Z,11.8
2023-05-02T11:22:55.872Z,7.8
2023-05-02T11:23:55.869Z,8.8
2023-05-02T11:24:55.809Z,9.0
2023-05-02T11:25:55.818Z,8.2
2023-05-02T11:26:55.811Z,8.6
2023-05-02T11:27:56.198Z,9.9
2023-05-02T11:28:55.839Z,9.6
2023-05-02T11:29:55.804Z,10.2
2023-05-02T11:30:56.703Z,7.5
2023-05-02T11:31:56.023Z,6.3
2023-05-02T11:32:55.853Z,7.1
2023-05-02T11:33:56.044Z,6.1
2023-05-02T11:34:55.778Z,5.9
2023-05-02T11:35:55.881Z,6.9
2023-05-02T11:36:55.806Z,5.5
2023-05-02T11:37:55.784Z,5.8
2023-05-02T11:38:55.769Z,6.7
2023-05-02T11:39:55.874Z,5.2
2023-05-02T11:40:55.851Z,7.2
2023-05-02T11:41:55.775Z,6.4
2023-05-02T11:42:55.941Z,5.7
2023-05-02T11:43:55.803Z,7.2
2023-05-02T11:45:55.866Z,6.2
2023-05-02T11:46:55.772Z,7.0
2023-05-02T11:47:55.817Z,5.1
2023-05-02T11:48:55.777Z,6.8
2023-05-02T11:49:55.843Z,6.2
2023-05-02T11:50:55.988Z,6.0
2023-05-02T11:51:56.258Z,6.6
2023-05-02T11:52:55.808Z,6.5
2023-05-02T11:53:55.918Z,5.7
2023-05-02T11:54:55.798Z,4.8
2023-05-02T11:55:55.834Z,5.1
2023-05-02T11:56:55.780Z,6.9
2023-05-02T11:57:55.745Z,5.0
2023-05-02T12:01:06.304Z,6.4
2023-05-02T12:01:55.815Z,9.6
2023-05-02T12:02:56.199Z,24.7
2023-05-02T12:03:55.799Z,14.2
2023-05-02T12:04:55.961Z,18.4
2023-05-02T12:05:55.841Z,7.7
2023-05-02T12:06:55.891Z,8.1
2023-05-02T12:07:56.068Z,7.4
2023-05-02T12:08:55.820Z,6.0
2023-05-02T12:09:55.841Z,7.5
2023-05-02T12:10:55.758Z,8.9
2023-05-02T12:11:55.818Z,10.1
2023-05-02T12:12:55.743Z,6.4
2023-05-02T12:13:55.744Z,7.6
2023-05-02T12:14:55.765Z,9.5
2023-05-02T12:15:56.096Z,7.4
2023-05-02T12:16:55.768Z,10.4
2023-05-02T12:17:55.763Z,6.4
2023-05-02T12:18:55.918Z,7.9
2023-05-02T12:19:55.764Z,6.4
2023-05-02T12:20:56.206Z,4.8
2023-05-02T12:21:55.787Z,6.6
2023-05-02T12:22:55.772Z,12.5
2023-05-02T12:23:55.724Z,12.9
2023-05-02T12:24:55.771Z,11.3
2023-05-02T12:25:55.749Z,8.0
2023-05-02T12:26:55.783Z,7.8
2023-05-02T12:27:55.752Z,9.2
2023-05-02T12:28:55.847Z,6.0
2023-05-02T12:29:55.736Z,6.9
2023-05-02T12:30:55.826Z,7.4
2023-05-02T12:31:55.763Z,8.2
2023-05-02T12:32:55.793Z,7.2
2023-05-02T12:33:55.710Z,6.4
2023-05-02T12:34:55.762Z,6.4
2023-05-02T12:35:55.773Z,5.9
2023-05-02T12:36:55.782Z,6.7
2023-05-02T12:37:55.918Z,8.0
2023-05-02T12:38:55.751Z,6.3
2023-05-02T12:39:55.798Z,6.7
2023-05-02T12:40:55.741Z,7.1
2023-05-02T12:41:55.698Z,9.2
2023-05-02T12:42:55.726Z,6.0
2023-05-02T12:43:55.772Z,5.3
2023-05-02T12:44:55.710Z,7.2
2023-05-02T12:45:55.749Z,6.1
2023-05-02T12:46:55.717Z,7.6
2023-05-02T12:47:55.804Z,6.4
2023-05-02T12:48:55.849Z,7.0
2023-05-02T12:49:55.767Z,6.0
2023-05-02T12:50:55.788Z,7.2
2023-05-02T12:51:55.715Z,6.8
2023-05-02T12:52:55.695Z,6.1
2023-05-02T12:53:55.718Z,6.3
2023-05-02T12:54:55.839Z,10.0
2023-05-02T12:55:55.679Z,4.7
2023-05-02T12:56:55.737Z,4.0
2023-05-02T12:57:55.713Z,5.2
2023-05-02T12:58:55.705Z,5.2
2023-05-02T12:59:55.878Z,5.3
2023-05-02T13:00:55.783Z,7.3
2023-05-02T13:01:55.697Z,3.9
2023-05-02T13:02:55.825Z,9.6
2023-05-02T13:03:55.760Z,3.8
2023-05-02T13:04:55.681Z,3.1
2023-05-02T13:05:55.696Z,3.3
2023-05-02T13:08:56.224Z,2.8
2023-05-02T13:09:55.690Z,3.3
2023-05-02T13:10:55.629Z,3.7
2023-05-02T13:11:55.663Z,2.8
2023-05-02T13:12:55.747Z,3.1
2023-05-02T13:13:55.715Z,3.0
2023-05-02T13:14:55.705Z,3.5
2023-05-02T13:15:55.712Z,3.9
2023-05-02T13:16:55.799Z,4.9
2023-05-02T13:17:55.762Z,2.8
2023-05-02T13:18:55.879Z,4.5
2023-05-02T13:20:01.637Z,2.3
2023-05-02T13:20:55.736Z,3.8
2023-05-02T13:21:55.846Z,2.9
2023-05-02T13:22:55.667Z,2.8
2023-05-02T13:23:55.667Z,2.7
2023-05-02T13:24:55.665Z,2.5
2023-05-02T13:25:55.673Z,4.1
2023-05-02T13:26:55.669Z,3.3
2023-05-02T13:27:55.621Z,3.2
2023-05-02T13:28:55.649Z,2.4
2023-05-02T13:29:55.667Z,2.6
2023-05-02T13:30:55.795Z,2.2
2023-05-02T13:31:55.719Z,3.0
2023-05-02T13:32:55.846Z,4.9
2023-05-02T13:33:55.660Z,3.7
2023-05-02T13:34:55.668Z,3.7
2023-05-02T13:35:55.716Z,2.0
2023-05-02T13:36:55.658Z,2.0
2023-05-02T13:37:55.633Z,2.5
2023-05-02T13:38:55.633Z,4.2
2023-05-02T13:39:56.833Z,6.8
2023-05-02T13:40:55.658Z,2.8
2023-05-02T13:41:55.595Z,3.7
2023-05-02T13:42:55.628Z,2.2
2023-05-02T13:43:55.685Z,3.5
2023-05-02T13:44:55.823Z,2.2
2023-05-02T13:45:55.652Z,2.0
2023-05-02T13:46:55.637Z,1.8
2023-05-02T13:47:55.673Z,2.1
2023-05-02T13:48:55.716Z,2.9
2023-05-02T13:49:55.635Z,3.3
2023-05-02T13:50:55.611Z,3.4
2023-05-02T13:51:55.603Z,3.1
2023-05-02T13:52:55.619Z,3.6
2023-05-02T13:54:04.077Z,4.5
2023-05-02T13:54:55.771Z,3.7
2023-05-02T13:55:55.776Z,3.0
2023-05-02T13:56:55.583Z,4.4
2023-05-02T13:57:55.603Z,2.8
2023-05-02T13:58:55.629Z,2.6
2023-05-02T13:59:55.704Z,3.0
2023-05-02T14:00:55.623Z,2.8
2023-05-02T14:01:55.690Z,3.3
2023-05-02T14:02:55.776Z,2.3
2023-05-02T14:03:55.737Z,2.6
2023-05-02T14:04:55.711Z,3.2
2023-05-02T14:05:55.617Z,3.9
2023-05-02T14:06:55.717Z,2.9
2023-05-02T14:07:55.682Z,2.9
2023-05-02T14:08:55.582Z,2.4
2023-05-02T14:09:55.613Z,3.2
2023-05-02T14:10:55.676Z,2.5
2023-05-02T14:11:55.569Z,4.1
2023-05-02T14:12:55.611Z,2.8
2023-05-02T14:13:55.656Z,3.5
2023-05-02T14:14:55.606Z,2.7
2023-05-02T14:15:55.870Z,2.6
2023-05-02T14:16:55.613Z,2.8
2023-05-02T14:17:55.672Z,5.2
2023-05-02T14:18:55.597Z,3.5
2023-05-02T14:19:55.599Z,3.1
2023-05-02T14:20:55.590Z,3.3
2023-05-02T14:21:55.636Z,2.8
2023-05-02T14:22:57.297Z,3.1
2023-05-02T14:23:55.634Z,3.6
2023-05-02T14:24:55.578Z,2.8
2023-05-02T14:25:55.581Z,2.5
2023-05-02T14:26:55.700Z,3.4
2023-05-02T14:27:55.590Z,3.4
2023-05-02T14:28:55.762Z,4.0
2023-05-02T14:29:55.608Z,2.5
2023-05-02T14:30:55.589Z,2.7
2023-05-02T14:31:55.874Z,2.8
2023-05-02T14:32:55.683Z,3.1
2023-05-02T14:33:55.598Z,2.8
2023-05-02T14:34:55.616Z,2.0
2023-05-02T14:35:55.618Z,3.7
2023-05-02T14:36:55.605Z,3.2
2023-05-02T14:37:55.571Z,3.5
2023-05-02T14:38:55.520Z,2.7
2023-05-02T14:39:55.549Z,2.4
2023-05-02T14:40:55.552Z,2.9
2023-05-02T14:41:55.586Z,4.4
2023-05-02T14:42:55.587Z,5.8
2023-05-02T14:43:55.566Z,3.7
2023-05-02T14:44:56.867Z,3.4
2023-05-02T14:45:55.726Z,3.2
2023-05-02T14:46:55.689Z,2.7
2023-05-02T14:47:55.690Z,4.9
2023-05-02T14:48:55.584Z,5.0
2023-05-02T14:49:55.588Z,4.0
2023-05-02T14:50:55.949Z,11.5
2023-05-02T14:51:56.374Z,3.6
2023-05-02T14:52:55.659Z,4.4
2023-05-02T14:53:55.584Z,3.5
2023-05-02T14:54:55.580Z,2.5
2023-05-02T14:55:55.530Z,3.4
2023-05-02T14:56:55.528Z,4.3
2023-05-02T14:57:56.147Z,6.1
2023-05-02T14:58:56.714Z,5.1
2023-05-02T14:59:55.622Z,5.7
2023-05-02T15:00:55.517Z,3.9
2023-05-02T15:04:06.156Z,3.4
2023-05-02T15:04:55.535Z,3.2
2023-05-02T15:05:55.597Z,3.9
2023-05-02T15:06:55.794Z,3.1
2023-05-02T15:07:55.519Z,3.8
2023-05-02T15:08:55.495Z,5.0
2023-05-02T15:09:55.671Z,4.1
2023-05-02T15:10:55.613Z,3.7
2023-05-02T15:11:55.517Z,3.9
2023-05-02T15:12:55.506Z,2.6
2023-05-02T15:13:57.469Z,2.6
2023-05-02T15:14:55.585Z,5.0
2023-05-02T15:15:55.568Z,2.8
2023-05-02T15:16:55.538Z,6.3
2023-05-02T15:17:55.498Z,3.9
2023-05-02T15:18:55.494Z,8.5
2023-05-02T15:19:57.810Z,5.3
2023-05-02T15:20:55.517Z,6.5
2023-05-02T15:21:55.488Z,8.5
2023-05-02T15:22:55.507Z,9.5
2023-05-02T15:23:55.516Z,4.5
2023-05-02T15:24:55.697Z,8.8
2023-05-02T15:25:55.563Z,3.8
2023-05-02T15:26:55.550Z,2.9
2023-05-02T15:27:55.518Z,3.3
2023-05-02T15:28:55.547Z,4.8
2023-05-02T15:29:55.527Z,3.8
2023-05-02T15:30:55.532Z,6.9
2023-05-02T15:31:55.532Z,3.9
2023-05-02T15:32:55.614Z,3.6
2023-05-02T15:33:55.507Z,4.6
2023-05-02T15:34:55.483Z,6.1
2023-05-02T15:35:55.743Z,5.5
2023-05-02T15:36:56.155Z,3.3
2023-05-02T15:37:55.523Z,3.4
2023-05-02T15:38:55.490Z,3.2
2023-05-02T15:39:55.531Z,4.5
2023-05-02T15:40:55.536Z,3.6
2023-05-02T15:41:55.526Z,4.2
2023-05-02T15:42:55.453Z,3.7
2023-05-02T15:43:55.531Z,5.1
2023-05-02T15:44:55.444Z,5.3
2023-05-02T15:45:55.620Z,4.2
2023-05-02T15:46:55.485Z,3.9
2023-05-02T15:47:55.515Z,4.6
2023-05-02T15:48:55.482Z,5.0
2023-05-02T15:49:55.666Z,4.6
2023-05-02T15:50:55.472Z,4.8
2023-05-02T15:51:55.555Z,15.2
2023-05-02T15:52:55.480Z,9.6
2023-05-02T15:53:55.529Z,6.4
2023-05-02T15:54:55.459Z,4.4
2023-05-02T15:55:55.435Z,8.7
2023-05-02T15:57:55.487Z,3.5
2023-05-02T15:58:55.472Z,6.8
2023-05-02T15:59:55.463Z,8.2
2023-05-02T16:00:55.506Z,5.6
2023-05-02T16:01:55.511Z,6.0
2023-05-02T16:02:55.563Z,12.0
2023-05-02T16:03:55.473Z,6.8
2023-05-02T16:04:55.605Z,6.3
2023-05-02T16:05:55.515Z,5.7
2023-05-02T16:07:14.188Z,3.5
2023-05-02T16:08:55.481Z,5.6
2023-05-02T16:09:55.434Z,5.2
2023-05-02T16:10:55.455Z,6.2
2023-05-02T16:11:55.406Z,3.8
2023-05-02T16:12:55.444Z,6.4
2023-05-02T16:13:55.524Z,5.5
2023-05-02T16:14:55.583Z,5.2
2023-05-02T16:15:55.460Z,5.6
2023-05-02T16:16:55.396Z,6.2
2023-05-02T16:17:55.437Z,4.6
2023-05-02T16:18:55.379Z,3.7
2023-05-02T16:19:55.442Z,3.4
2023-05-02T16:20:55.438Z,4.9
2023-05-02T16:21:55.439Z,3.7
2023-05-02T16:22:55.379Z,4.0
2023-05-02T16:23:55.405Z,3.4
2023-05-02T16:24:55.389Z,3.0
2023-05-02T16:25:55.430Z,3.5
2023-05-02T16:26:55.401Z,3.9
2023-05-02T16:27:55.421Z,4.2
2023-05-02T16:28:55.429Z,4.3
2023-05-02T16:29:55.599Z,9.0